sensor_id;sensor_type;location;lat;lon;timestamp;P1;durP1;ratioP1;P2;durP2;ratioP2
19780;SDS011;10050;55.492;13.506;2023-03-08T00:00:12;3.90;;;1.40;;
19780;SDS011;10050;55.492;13.506;2023-03-08T00:02:40;1.27;;;1.10;;
19780;SDS011;10050;55.492;13.506;2023-03-08T00:05:06;7.60;;;1.70;;
19780;SDS011;10050;55.492;13.506;2023-03-08T00:07:32;3.87;;;1.43;;
19780;SDS011;10050;55.492;13.506;2023-03-08T00:09:59;1.97;;;1.07;;
19780;SDS011;10050;55.492;13.506;2023-03-08T00:12:24;2.40;;;1.00;;
19780;SDS011;10050;55.492;13.506;2023-03-08T00:14:51;2.00;;;1.17;;
19780;SDS011;10050;55.492;13.506;2023-03-08T00:17:17;3.00;;;1.17;;
19780;SDS011;10050;55.492;13.506;2023-03-08T00:19:43;3.00;;;1.40;;
19780;SDS011;10050;55.492;13.506;2023-03-08T00:22:09;1.90;;;0.90;;
19780;SDS011;10050;55.492;13.506;2023-03-08T00:24:35;2.77;;;1.20;;
19780;SDS011;10050;55.492;13.506;2023-03-08T00:27:01;2.23;;;1.00;;
19780;SDS011;10050;55.492;13.506;2023-03-08T00:29:27;4.43;;;1.30;;
19780;SDS011;10050;55.492;13.506;2023-03-08T00:31:53;2.37;;;0.90;;
19780;SDS011;10050;55.492;13.506;2023-03-08T00:34:18;1.90;;;0.90;;
19780;SDS011;10050;55.492;13.506;2023-03-08T00:36:44;3.03;;;0.87;;
19780;SDS011;10050;55.492;13.506;2023-03-08T00:39:10;1.23;;;1.03;;
19780;SDS011;10050;55.492;13.506;2023-03-08T00:41:38;0.97;;;0.90;;
19780;SDS011;10050;55.492;13.506;2023-03-08T00:44:04;5.03;;;1.00;;
19780;SDS011;10050;55.492;13.506;2023-03-08T00:46:32;2.93;;;0.80;;
19780;SDS011;10050;55.492;13.506;2023-03-08T00:48:58;1.03;;;1.03;;
19780;SDS011;10050;55.492;13.506;2023-03-08T00:51:23;8.30;;;1.37;;
19780;SDS011;10050;55.492;13.506;2023-03-08T00:53:50;1.10;;;1.00;;
19780;SDS011;10050;55.492;13.506;2023-03-08T00:56:16;1.20;;;1.00;;
19780;SDS011;10050;55.492;13.506;2023-03-08T00:58:42;2.30;;;1.00;;
19780;SDS011;10050;55.492;13.506;2023-03-08T01:01:08;3.43;;;1.33;;
19780;SDS011;10050;55.492;13.506;2023-03-08T01:03:38;2.67;;;1.00;;
19780;SDS011;10050;55.492;13.506;2023-03-08T01:06:05;1.90;;;0.90;;
19780;SDS011;10050;55.492;13.506;2023-03-08T01:08:32;1.30;;;0.97;;
19780;SDS011;10050;55.492;13.506;2023-03-08T01:10:58;1.40;;;1.00;;
19780;SDS011;10050;55.492;13.506;2023-03-08T01:13:25;2.63;;;0.90;;
19780;SDS011;10050;55.492;13.506;2023-03-08T01:15:53;4.20;;;1.40;;
19780;SDS011;10050;55.492;13.506;2023-03-08T01:18:19;8.47;;;1.30;;
19780;SDS011;10050;55.492;13.506;2023-03-08T01:20:55;2.00;;;1.20;;
19780;SDS011;10050;55.492;13.506;2023-03-08T01:23:28;2.57;;;1.10;;
19780;SDS011;10050;55.492;13.506;2023-03-08T01:26:01;4.33;;;1.00;;
19780;SDS011;10050;55.492;13.506;2023-03-08T01:28:35;4.97;;;1.37;;
19780;SDS011;10050;55.492;13.506;2023-03-08T01:31:08;2.23;;;1.00;;
19780;SDS011;10050;55.492;13.506;2023-03-08T01:33:53;2.80;;;1.37;;
19780;SDS011;10050;55.492;13.506;2023-03-08T01:36:19;2.07;;;0.90;;
19780;SDS011;10050;55.492;13.506;2023-03-08T01:38:47;3.63;;;1.17;;
19780;SDS011;10050;55.492;13.506;2023-03-08T01:41:23;3.90;;;1.07;;
19780;SDS011;10050;55.492;13.506;2023-03-08T01:43:51;1.13;;;0.93;;
19780;SDS011;10050;55.492;13.506;2023-03-08T01:46:19;3.17;;;1.20;;
19780;SDS011;10050;55.492;13.506;2023-03-08T01:49:25;5.07;;;1.00;;
19780;SDS011;10050;55.492;13.506;2023-03-08T01:52:40;5.40;;;1.30;;
19780;SDS011;10050;55.492;13.506;2023-03-08T01:55:34;3.00;;;0.93;;
19780;SDS011;10050;55.492;13.506;2023-03-08T01:58:00;3.50;;;1.17;;
19780;SDS011;10050;55.492;13.506;2023-03-08T02:00:26;2.00;;;1.13;;
19780;SDS011;10050;55.492;13.506;2023-03-08T02:03:05;1.77;;;1.00;;
19780;SDS011;10050;55.492;13.506;2023-03-08T02:05:38;2.80;;;1.20;;
19780;SDS011;10050;55.492;13.506;2023-03-08T02:08:05;1.40;;;1.30;;
19780;SDS011;10050;55.492;13.506;2023-03-08T02:10:31;1.40;;;0.93;;
19780;SDS011;10050;55.492;13.506;2023-03-08T02:12:58;1.73;;;1.00;;
19780;SDS011;10050;55.492;13.506;2023-03-08T02:15:25;2.90;;;1.30;;
19780;SDS011;10050;55.492;13.506;2023-03-08T02:17:51;3.03;;;1.53;;
19780;SDS011;10050;55.492;13.506;2023-03-08T02:23:12;3.67;;;1.23;;
19780;SDS011;10050;55.492;13.506;2023-03-08T02:25:50;0.80;;;0.80;;
19780;SDS011;10050;55.492;13.506;2023-03-08T02:28:27;5.53;;;1.10;;
19780;SDS011;10050;55.492;13.506;2023-03-08T02:30:54;1.07;;;0.97;;
19780;SDS011;10050;55.492;13.506;2023-03-08T02:33:23;3.10;;;1.50;;
19780;SDS011;10050;55.492;13.506;2023-03-08T02:35:49;3.23;;;1.10;;
19780;SDS011;10050;55.492;13.506;2023-03-08T02:38:16;3.13;;;1.00;;
19780;SDS011;10050;55.492;13.506;2023-03-08T02:40:42;9.03;;;1.20;;
19780;SDS011;10050;55.492;13.506;2023-03-08T02:43:08;2.93;;;1.73;;
19780;SDS011;10050;55.492;13.506;2023-03-08T02:45:35;1.13;;;0.87;;
19780;SDS011;10050;55.492;13.506;2023-03-08T02:48:01;1.30;;;0.90;;
19780;SDS011;10050;55.492;13.506;2023-03-08T02:50:30;1.40;;;0.80;;
19780;SDS011;10050;55.492;13.506;2023-03-08T02:52:56;4.30;;;1.00;;
19780;SDS011;10050;55.492;13.506;2023-03-08T02:55:22;0.90;;;0.90;;
19780;SDS011;10050;55.492;13.506;2023-03-08T02:57:48;0.80;;;0.80;;
19780;SDS011;10050;55.492;13.506;2023-03-08T03:00:14;1.60;;;1.00;;
19780;SDS011;10050;55.492;13.506;2023-03-08T03:02:40;0.90;;;0.90;;
19780;SDS011;10050;55.492;13.506;2023-03-08T03:05:07;1.00;;;1.00;;
19780;SDS011;10050;55.492;13.506;2023-03-08T03:07:37;2.13;;;0.90;;
19780;SDS011;10050;55.492;13.506;2023-03-08T03:10:04;2.30;;;0.87;;
19780;SDS011;10050;55.492;13.506;2023-03-08T03:12:30;1.30;;;0.83;;
19780;SDS011;10050;55.492;13.506;2023-03-08T03:14:56;4.83;;;1.00;;
19780;SDS011;10050;55.492;13.506;2023-03-08T03:17:22;0.80;;;0.80;;
19780;SDS011;10050;55.492;13.506;2023-03-08T03:19:47;1.20;;;1.10;;
19780;SDS011;10050;55.492;13.506;2023-03-08T03:22:13;1.03;;;0.90;;
19780;SDS011;10050;55.492;13.506;2023-03-08T03:24:39;0.80;;;0.80;;
19780;SDS011;10050;55.492;13.506;2023-03-08T03:27:07;0.90;;;0.90;;
19780;SDS011;10050;55.492;13.506;2023-03-08T03:29:33;1.43;;;0.90;;
19780;SDS011;10050;55.492;13.506;2023-03-08T03:32:00;1.93;;;0.93;;
19780;SDS011;10050;55.492;13.506;2023-03-08T03:34:26;2.17;;;1.00;;
19780;SDS011;10050;55.492;13.506;2023-03-08T03:36:52;2.00;;;0.70;;
19780;SDS011;10050;55.492;13.506;2023-03-08T03:39:17;0.70;;;0.70;;
19780;SDS011;10050;55.492;13.506;2023-03-08T03:41:43;1.10;;;1.00;;
19780;SDS011;10050;55.492;13.506;2023-03-08T03:44:09;2.63;;;0.90;;
19780;SDS011;10050;55.492;13.506;2023-03-08T03:46:37;1.97;;;0.70;;
19780;SDS011;10050;55.492;13.506;2023-03-08T03:49:03;0.80;;;0.80;;
19780;SDS011;10050;55.492;13.506;2023-03-08T03:51:28;4.47;;;0.90;;
19780;SDS011;10050;55.492;13.506;2023-03-08T03:53:54;1.10;;;1.00;;
19780;SDS011;10050;55.492;13.506;2023-03-08T03:56:23;1.30;;;1.10;;
19780;SDS011;10050;55.492;13.506;2023-03-08T03:58:51;5.00;;;1.00;;
19780;SDS011;10050;55.492;13.506;2023-03-08T04:01:24;1.77;;;0.97;;
19780;SDS011;10050;55.492;13.506;2023-03-08T04:03:51;2.47;;;0.93;;
19780;SDS011;10050;55.492;13.506;2023-03-08T04:06:22;1.87;;;1.13;;
19780;SDS011;10050;55.492;13.506;2023-03-08T04:08:56;3.03;;;1.00;;
19780;SDS011;10050;55.492;13.506;2023-03-08T04:11:25;1.00;;;0.70;;
19780;SDS011;10050;55.492;13.506;2023-03-08T04:13:53;1.07;;;0.90;;
19780;SDS011;10050;55.492;13.506;2023-03-08T04:16:20;3.17;;;1.10;;
19780;SDS011;10050;55.492;13.506;2023-03-08T04:18:54;1.83;;;0.97;;
19780;SDS011;10050;55.492;13.506;2023-03-08T04:21:22;2.37;;;0.87;;
19780;SDS011;10050;55.492;13.506;2023-03-08T04:23:51;0.90;;;0.90;;
19780;SDS011;10050;55.492;13.506;2023-03-08T04:26:17;1.17;;;1.07;;
19780;SDS011;10050;55.492;13.506;2023-03-08T04:28:43;3.40;;;0.93;;
19780;SDS011;10050;55.492;13.506;2023-03-08T04:31:16;1.33;;;1.10;;
19780;SDS011;10050;55.492;13.506;2023-03-08T04:33:44;1.57;;;1.20;;
19780;SDS011;10050;55.492;13.506;2023-03-08T04:36:10;0.97;;;0.93;;
19780;SDS011;10050;55.492;13.506;2023-03-08T04:38:37;1.27;;;1.03;;
19780;SDS011;10050;55.492;13.506;2023-03-08T04:41:03;1.27;;;1.17;;
19780;SDS011;10050;55.492;13.506;2023-03-08T04:43:31;3.80;;;2.20;;
19780;SDS011;10050;55.492;13.506;2023-03-08T04:45:58;3.70;;;3.40;;
19780;SDS011;10050;55.492;13.506;2023-03-08T04:48:25;2.63;;;1.77;;
19780;SDS011;10050;55.492;13.506;2023-03-08T04:50:52;1.47;;;1.33;;
19780;SDS011;10050;55.492;13.506;2023-03-08T04:53:19;2.23;;;1.13;;
19780;SDS011;10050;55.492;13.506;2023-03-08T04:55:46;0.87;;;0.87;;
19780;SDS011;10050;55.492;13.506;2023-03-08T04:58:11;1.27;;;1.00;;
19780;SDS011;10050;55.492;13.506;2023-03-08T05:00:37;2.03;;;1.00;;
19780;SDS011;10050;55.492;13.506;2023-03-08T05:03:03;2.43;;;1.13;;
19780;SDS011;10050;55.492;13.506;2023-03-08T05:05:30;2.43;;;1.30;;
19780;SDS011;10050;55.492;13.506;2023-03-08T05:07:56;1.13;;;1.03;;
19780;SDS011;10050;55.492;13.506;2023-03-08T05:10:23;4.77;;;1.10;;
19780;SDS011;10050;55.492;13.506;2023-03-08T05:12:49;1.63;;;1.40;;
19780;SDS011;10050;55.492;13.506;2023-03-08T05:15:15;2.67;;;1.00;;
19780;SDS011;10050;55.492;13.506;2023-03-08T05:17:42;1.40;;;0.97;;
19780;SDS011;10050;55.492;13.506;2023-03-08T05:20:08;2.33;;;1.30;;
19780;SDS011;10050;55.492;13.506;2023-03-08T05:22:37;1.00;;;1.00;;
19780;SDS011;10050;55.492;13.506;2023-03-08T05:25:03;2.30;;;1.30;;
19780;SDS011;10050;55.492;13.506;2023-03-08T05:27:33;2.33;;;1.27;;
19780;SDS011;10050;55.492;13.506;2023-03-08T05:30:03;1.90;;;1.03;;
19780;SDS011;10050;55.492;13.506;2023-03-08T05:32:32;2.10;;;1.10;;
19780;SDS011;10050;55.492;13.506;2023-03-08T05:34:59;1.27;;;1.23;;
19780;SDS011;10050;55.492;13.506;2023-03-08T05:37:28;2.90;;;1.17;;
19780;SDS011;10050;55.492;13.506;2023-03-08T05:40:00;6.00;;;1.37;;
19780;SDS011;10050;55.492;13.506;2023-03-08T05:42:32;3.40;;;1.30;;
19780;SDS011;10050;55.492;13.506;2023-03-08T05:45:04;3.10;;;1.47;;
19780;SDS011;10050;55.492;13.506;2023-03-08T05:47:40;1.70;;;1.00;;
19780;SDS011;10050;55.492;13.506;2023-03-08T05:50:10;2.40;;;1.23;;
19780;SDS011;10050;55.492;13.506;2023-03-08T05:52:50;1.33;;;1.10;;
19780;SDS011;10050;55.492;13.506;2023-03-08T05:55:26;2.80;;;1.40;;
19780;SDS011;10050;55.492;13.506;2023-03-08T05:58:36;3.30;;;1.07;;
19780;SDS011;10050;55.492;13.506;2023-03-08T06:01:13;5.20;;;1.10;;
19780;SDS011;10050;55.492;13.506;2023-03-08T06:11:15;1.23;;;0.93;;
19780;SDS011;10050;55.492;13.506;2023-03-08T06:14:32;2.10;;;1.13;;
19780;SDS011;10050;55.492;13.506;2023-03-08T06:17:18;0.93;;;0.93;;
19780;SDS011;10050;55.492;13.506;2023-03-08T06:19:47;1.93;;;1.00;;
19780;SDS011;10050;55.492;13.506;2023-03-08T06:22:37;3.03;;;1.23;;
19780;SDS011;10050;55.492;13.506;2023-03-08T06:25:05;4.53;;;1.17;;
19780;SDS011;10050;55.492;13.506;2023-03-08T06:27:33;2.10;;;1.10;;
19780;SDS011;10050;55.492;13.506;2023-03-08T06:29:59;2.00;;;0.90;;
19780;SDS011;10050;55.492;13.506;2023-03-08T06:32:28;2.33;;;1.00;;
19780;SDS011;10050;55.492;13.506;2023-03-08T06:34:53;1.13;;;0.97;;
19780;SDS011;10050;55.492;13.506;2023-03-08T06:37:19;1.27;;;1.00;;
19780;SDS011;10050;55.492;13.506;2023-03-08T06:39:45;2.67;;;1.00;;
19780;SDS011;10050;55.492;13.506;2023-03-08T06:42:10;1.77;;;0.90;;
19780;SDS011;10050;55.492;13.506;2023-03-08T06:44:36;3.20;;;1.00;;
19780;SDS011;10050;55.492;13.506;2023-03-08T06:47:02;1.03;;;1.03;;
19780;SDS011;10050;55.492;13.506;2023-03-08T06:49:28;1.93;;;1.00;;
19780;SDS011;10050;55.492;13.506;2023-03-08T06:51:53;1.60;;;1.50;;
19780;SDS011;10050;55.492;13.506;2023-03-08T06:54:19;1.97;;;1.00;;
19780;SDS011;10050;55.492;13.506;2023-03-08T06:56:46;1.53;;;1.07;;
19780;SDS011;10050;55.492;13.506;2023-03-08T06:59:12;3.20;;;1.00;;
19780;SDS011;10050;55.492;13.506;2023-03-08T07:01:38;3.70;;;1.10;;
19780;SDS011;10050;55.492;13.506;2023-03-08T07:04:07;2.00;;;1.00;;
19780;SDS011;10050;55.492;13.506;2023-03-08T07:06:33;1.23;;;1.00;;
19780;SDS011;10050;55.492;13.506;2023-03-08T07:08:58;0.70;;;0.70;;
19780;SDS011;10050;55.492;13.506;2023-03-08T07:11:26;1.23;;;1.00;;
19780;SDS011;10050;55.492;13.506;2023-03-08T07:13:53;1.10;;;0.97;;
19780;SDS011;10050;55.492;13.506;2023-03-08T07:16:19;3.90;;;0.90;;
19780;SDS011;10050;55.492;13.506;2023-03-08T07:18:48;4.43;;;1.00;;
19780;SDS011;10050;55.492;13.506;2023-03-08T07:21:14;2.63;;;1.00;;
19780;SDS011;10050;55.492;13.506;2023-03-08T07:23:40;1.03;;;1.00;;
19780;SDS011;10050;55.492;13.506;2023-03-08T07:26:06;2.93;;;1.20;;
19780;SDS011;10050;55.492;13.506;2023-03-08T07:28:32;4.17;;;0.97;;
19780;SDS011;10050;55.492;13.506;2023-03-08T07:30:58;1.60;;;0.70;;
19780;SDS011;10050;55.492;13.506;2023-03-08T07:33:23;0.80;;;0.80;;
19780;SDS011;10050;55.492;13.506;2023-03-08T07:35:49;2.20;;;0.83;;
19780;SDS011;10050;55.492;13.506;2023-03-08T07:38:15;1.70;;;0.90;;
19780;SDS011;10050;55.492;13.506;2023-03-08T07:40:41;0.77;;;0.70;;
19780;SDS011;10050;55.492;13.506;2023-03-08T07:43:07;1.00;;;0.80;;
19780;SDS011;10050;55.492;13.506;2023-03-08T07:45:33;4.50;;;1.00;;
19780;SDS011;10050;55.492;13.506;2023-03-08T07:47:59;2.20;;;0.90;;
19780;SDS011;10050;55.492;13.506;2023-03-08T07:50:25;2.10;;;0.93;;
19780;SDS011;10050;55.492;13.506;2023-03-08T07:52:51;1.40;;;0.93;;
19780;SDS011;10050;55.492;13.506;2023-03-08T07:55:16;1.27;;;0.87;;
19780;SDS011;10050;55.492;13.506;2023-03-08T07:57:42;3.20;;;0.93;;
19780;SDS011;10050;55.492;13.506;2023-03-08T08:00:08;0.70;;;0.70;;
19780;SDS011;10050;55.492;13.506;2023-03-08T08:02:35;1.30;;;0.80;;
19780;SDS011;10050;55.492;13.506;2023-03-08T08:05:01;1.57;;;0.70;;
19780;SDS011;10050;55.492;13.506;2023-03-08T08:07:28;0.63;;;0.60;;
19780;SDS011;10050;55.492;13.506;2023-03-08T08:09:55;0.60;;;0.60;;
19780;SDS011;10050;55.492;13.506;2023-03-08T08:12:21;0.90;;;0.70;;
19780;SDS011;10050;55.492;13.506;2023-03-08T08:14:49;2.40;;;0.80;;
19780;SDS011;10050;55.492;13.506;2023-03-08T08:17:16;2.23;;;0.80;;
19780;SDS011;10050;55.492;13.506;2023-03-08T08:19:46;0.53;;;0.53;;
19780;SDS011;10050;55.492;13.506;2023-03-08T08:22:12;0.53;;;0.53;;
19780;SDS011;10050;55.492;13.506;2023-03-08T08:24:38;1.97;;;0.83;;
19780;SDS011;10050;55.492;13.506;2023-03-08T08:27:03;1.83;;;0.87;;
19780;SDS011;10050;55.492;13.506;2023-03-08T08:29:30;0.60;;;0.60;;
19780;SDS011;10050;55.492;13.506;2023-03-08T08:31:55;1.30;;;0.50;;
19780;SDS011;10050;55.492;13.506;2023-03-08T08:34:21;0.57;;;0.57;;
19780;SDS011;10050;55.492;13.506;2023-03-08T08:36:47;0.83;;;0.70;;
19780;SDS011;10050;55.492;13.506;2023-03-08T08:39:13;0.80;;;0.80;;
19780;SDS011;10050;55.492;13.506;2023-03-08T08:41:39;1.13;;;0.60;;
19780;SDS011;10050;55.492;13.506;2023-03-08T08:44:04;1.43;;;0.60;;
19780;SDS011;10050;55.492;13.506;2023-03-08T08:46:30;0.80;;;0.70;;
19780;SDS011;10050;55.492;13.506;2023-03-08T08:48:58;2.87;;;0.70;;
19780;SDS011;10050;55.492;13.506;2023-03-08T08:51:24;3.50;;;0.80;;
19780;SDS011;10050;55.492;13.506;2023-03-08T08:53:50;1.30;;;0.90;;
19780;SDS011;10050;55.492;13.506;2023-03-08T08:56:20;0.73;;;0.70;;
19780;SDS011;10050;55.492;13.506;2023-03-08T08:58:50;0.50;;;0.50;;
19780;SDS011;10050;55.492;13.506;2023-03-08T09:01:17;1.53;;;0.60;;
19780;SDS011;10050;55.492;13.506;2023-03-08T09:03:51;0.83;;;0.60;;
19780;SDS011;10050;55.492;13.506;2023-03-08T09:06:17;0.53;;;0.53;;
19780;SDS011;10050;55.492;13.506;2023-03-08T09:08:47;1.03;;;0.60;;
19780;SDS011;10050;55.492;13.506;2023-03-08T09:11:14;0.93;;;0.60;;
19780;SDS011;10050;55.492;13.506;2023-03-08T09:13:39;0.40;;;0.40;;
19780;SDS011;10050;55.492;13.506;2023-03-08T09:16:27;2.33;;;0.87;;
19780;SDS011;10050;55.492;13.506;2023-03-08T09:18:59;0.87;;;0.70;;
19780;SDS011;10050;55.492;13.506;2023-03-08T09:21:26;0.80;;;0.70;;
19780;SDS011;10050;55.492;13.506;2023-03-08T09:23:54;0.97;;;0.70;;
19780;SDS011;10050;55.492;13.506;2023-03-08T09:26:22;0.50;;;0.50;;
19780;SDS011;10050;55.492;13.506;2023-03-08T09:28:48;0.60;;;0.60;;
19780;SDS011;10050;55.492;13.506;2023-03-08T09:31:14;0.50;;;0.50;;
19780;SDS011;10050;55.492;13.506;2023-03-08T09:33:42;2.13;;;0.63;;
19780;SDS011;10050;55.492;13.506;2023-03-08T09:36:12;1.13;;;0.70;;
19780;SDS011;10050;55.492;13.506;2023-03-08T09:38:38;1.50;;;0.60;;
19780;SDS011;10050;55.492;13.506;2023-03-08T09:44:11;1.00;;;0.70;;
19780;SDS011;10050;55.492;13.506;2023-03-08T09:46:48;0.67;;;0.67;;
19780;SDS011;10050;55.492;13.506;2023-03-08T09:49:20;1.40;;;0.60;;
19780;SDS011;10050;55.492;13.506;2023-03-08T09:52:16;1.30;;;0.83;;
19780;SDS011;10050;55.492;13.506;2023-03-08T09:54:57;0.63;;;0.63;;
19780;SDS011;10050;55.492;13.506;2023-03-08T09:57:27;0.73;;;0.70;;
19780;SDS011;10050;55.492;13.506;2023-03-08T09:59:58;2.47;;;0.60;;
19780;SDS011;10050;55.492;13.506;2023-03-08T10:05:35;0.83;;;0.50;;
19780;SDS011;10050;55.492;13.506;2023-03-08T10:08:21;0.83;;;0.70;;
19780;SDS011;10050;55.492;13.506;2023-03-08T10:11:39;1.47;;;0.97;;
19780;SDS011;10050;55.492;13.506;2023-03-08T10:14:34;0.70;;;0.67;;
19780;SDS011;10050;55.492;13.506;2023-03-08T10:17:07;0.97;;;0.60;;
19780;SDS011;10050;55.492;13.506;2023-03-08T10:19:41;1.50;;;0.80;;
19780;SDS011;10050;55.492;13.506;2023-03-08T10:22:15;1.13;;;0.60;;
19780;SDS011;10050;55.492;13.506;2023-03-08T10:25:00;1.13;;;0.67;;
19780;SDS011;10050;55.492;13.506;2023-03-08T10:27:31;2.33;;;0.70;;
19780;SDS011;10050;55.492;13.506;2023-03-08T10:29:59;1.47;;;0.70;;
19780;SDS011;10050;55.492;13.506;2023-03-08T10:32:26;2.73;;;0.70;;
19780;SDS011;10050;55.492;13.506;2023-03-08T10:34:59;0.60;;;0.60;;
19780;SDS011;10050;55.492;13.506;2023-03-08T10:37:29;0.77;;;0.60;;
19780;SDS011;10050;55.492;13.506;2023-03-08T10:40:05;0.73;;;0.60;;
19780;SDS011;10050;55.492;13.506;2023-03-08T10:42:35;0.53;;;0.53;;
19780;SDS011;10050;55.492;13.506;2023-03-08T10:45:12;1.13;;;0.73;;
19780;SDS011;10050;55.492;13.506;2023-03-08T10:47:40;0.70;;;0.70;;
19780;SDS011;10050;55.492;13.506;2023-03-08T10:52:49;1.80;;;0.77;;
19780;SDS011;10050;55.492;13.506;2023-03-08T11:00:29;1.80;;;0.70;;
19780;SDS011;10050;55.492;13.506;2023-03-08T11:03:01;2.30;;;0.87;;
19780;SDS011;10050;55.492;13.506;2023-03-08T11:05:36;2.00;;;0.80;;
19780;SDS011;10050;55.492;13.506;2023-03-08T11:08:02;0.80;;;0.80;;
19780;SDS011;10050;55.492;13.506;2023-03-08T11:10:29;1.30;;;0.63;;
19780;SDS011;10050;55.492;13.506;2023-03-08T11:13:07;2.63;;;0.80;;
19780;SDS011;10050;55.492;13.506;2023-03-08T11:15:37;0.50;;;0.50;;
19780;SDS011;10050;55.492;13.506;2023-03-08T11:18:22;0.80;;;0.80;;
19780;SDS011;10050;55.492;13.506;2023-03-08T11:21:11;1.97;;;0.90;;
19780;SDS011;10050;55.492;13.506;2023-03-08T11:23:48;1.03;;;0.80;;
19780;SDS011;10050;55.492;13.506;2023-03-08T11:26:28;1.57;;;0.77;;
19780;SDS011;10050;55.492;13.506;2023-03-08T11:29:19;1.57;;;0.80;;
19780;SDS011;10050;55.492;13.506;2023-03-08T11:40:41;0.93;;;0.87;;
19780;SDS011;10050;55.492;13.506;2023-03-08T11:56:37;0.80;;;0.80;;
19780;SDS011;10050;55.492;13.506;2023-03-08T12:07:31;2.60;;;0.90;;
19780;SDS011;10050;55.492;13.506;2023-03-08T12:16:19;0.73;;;0.73;;
19780;SDS011;10050;55.492;13.506;2023-03-08T12:21:45;0.73;;;0.73;;
19780;SDS011;10050;55.492;13.506;2023-03-08T12:24:33;1.40;;;0.63;;
19780;SDS011;10050;55.492;13.506;2023-03-08T12:27:46;1.83;;;0.80;;
19780;SDS011;10050;55.492;13.506;2023-03-08T12:30:14;0.90;;;0.83;;
19780;SDS011;10050;55.492;13.506;2023-03-08T12:32:42;0.83;;;0.83;;
19780;SDS011;10050;55.492;13.506;2023-03-08T12:35:28;0.80;;;0.73;;
19780;SDS011;10050;55.492;13.506;2023-03-08T12:40:46;0.87;;;0.87;;
19780;SDS011;10050;55.492;13.506;2023-03-08T12:43:27;2.17;;;1.03;;
19780;SDS011;10050;55.492;13.506;2023-03-08T12:48:26;2.00;;;1.00;;
19780;SDS011;10050;55.492;13.506;2023-03-08T13:03:58;1.03;;;0.93;;
19780;SDS011;10050;55.492;13.506;2023-03-08T13:08:59;0.90;;;0.90;;
19780;SDS011;10050;55.492;13.506;2023-03-08T13:11:38;1.93;;;1.13;;
19780;SDS011;10050;55.492;13.506;2023-03-08T13:14:21;0.80;;;0.80;;
19780;SDS011;10050;55.492;13.506;2023-03-08T13:16:50;0.70;;;0.60;;
19780;SDS011;10050;55.492;13.506;2023-03-08T13:19:25;0.70;;;0.70;;
19780;SDS011;10050;55.492;13.506;2023-03-08T13:22:17;1.37;;;0.90;;
19780;SDS011;10050;55.492;13.506;2023-03-08T13:24:55;0.53;;;0.53;;
19780;SDS011;10050;55.492;13.506;2023-03-08T13:27:30;1.23;;;1.23;;
19780;SDS011;10050;55.492;13.506;2023-03-08T13:30:12;0.70;;;0.70;;
19780;SDS011;10050;55.492;13.506;2023-03-08T13:32:46;1.33;;;0.80;;
19780;SDS011;10050;55.492;13.506;2023-03-08T13:35:14;0.70;;;0.70;;
19780;SDS011;10050;55.492;13.506;2023-03-08T13:37:40;0.67;;;0.67;;
19780;SDS011;10050;55.492;13.506;2023-03-08T13:40:14;1.50;;;0.80;;
19780;SDS011;10050;55.492;13.506;2023-03-08T13:42:51;0.70;;;0.70;;
19780;SDS011;10050;55.492;13.506;2023-03-08T13:45:21;1.20;;;0.70;;
19780;SDS011;10050;55.492;13.506;2023-03-08T13:47:48;0.93;;;0.93;;
19780;SDS011;10050;55.492;13.506;2023-03-08T13:50:19;3.20;;;0.80;;
19780;SDS011;10050;55.492;13.506;2023-03-08T13:52:56;1.00;;;0.90;;
19780;SDS011;10050;55.492;13.506;2023-03-08T13:55:25;1.63;;;0.90;;
19780;SDS011;10050;55.492;13.506;2023-03-08T13:57:56;4.87;;;0.90;;
19780;SDS011;10050;55.492;13.506;2023-03-08T14:00:23;1.80;;;1.10;;
19780;SDS011;10050;55.492;13.506;2023-03-08T14:02:57;2.88;;;0.98;;
19780;SDS011;10050;55.492;13.506;2023-03-08T14:05:30;1.23;;;0.90;;
19780;SDS011;10050;55.492;13.506;2023-03-08T14:10:30;1.37;;;0.73;;
19780;SDS011;10050;55.492;13.506;2023-03-08T14:13:28;0.80;;;0.80;;
19780;SDS011;10050;55.492;13.506;2023-03-08T14:15:57;0.87;;;0.87;;
19780;SDS011;10050;55.492;13.506;2023-03-08T14:18:40;0.80;;;0.80;;
19780;SDS011;10050;55.492;13.506;2023-03-08T14:21:16;0.70;;;0.70;;
19780;SDS011;10050;55.492;13.506;2023-03-08T14:23:51;0.80;;;0.80;;
19780;SDS011;10050;55.492;13.506;2023-03-08T14:26:38;0.80;;;0.80;;
19780;SDS011;10050;55.492;13.506;2023-03-08T14:34:34;0.87;;;0.87;;
19780;SDS011;10050;55.492;13.506;2023-03-08T14:39:42;1.13;;;1.00;;
19780;SDS011;10050;55.492;13.506;2023-03-08T14:42:17;0.90;;;0.90;;
19780;SDS011;10050;55.492;13.506;2023-03-08T14:47:26;1.20;;;1.10;;
19780;SDS011;10050;55.492;13.506;2023-03-08T14:50:04;0.90;;;0.90;;
19780;SDS011;10050;55.492;13.506;2023-03-08T14:52:48;2.93;;;0.87;;
19780;SDS011;10050;55.492;13.506;2023-03-08T14:55:23;0.80;;;0.80;;
19780;SDS011;10050;55.492;13.506;2023-03-08T14:57:54;0.90;;;0.90;;
19780;SDS011;10050;55.492;13.506;2023-03-08T15:00:22;0.90;;;0.90;;
19780;SDS011;10050;55.492;13.506;2023-03-08T15:02:51;1.10;;;1.00;;
19780;SDS011;10050;55.492;13.506;2023-03-08T15:05:18;1.37;;;1.03;;
19780;SDS011;10050;55.492;13.506;2023-03-08T15:07:48;1.57;;;0.90;;
19780;SDS011;10050;55.492;13.506;2023-03-08T15:10:26;0.80;;;0.80;;
19780;SDS011;10050;55.492;13.506;2023-03-08T15:12:56;0.90;;;0.90;;
19780;SDS011;10050;55.492;13.506;2023-03-08T15:15:22;1.27;;;0.80;;
19780;SDS011;10050;55.492;13.506;2023-03-08T15:17:48;1.17;;;0.80;;
19780;SDS011;10050;55.492;13.506;2023-03-08T15:20:13;0.90;;;0.90;;
19780;SDS011;10050;55.492;13.506;2023-03-08T15:22:47;0.80;;;0.80;;
19780;SDS011;10050;55.492;13.506;2023-03-08T15:25:17;2.00;;;0.80;;
19780;SDS011;10050;55.492;13.506;2023-03-08T15:27:47;0.90;;;0.90;;
19780;SDS011;10050;55.492;13.506;2023-03-08T15:30:18;0.60;;;0.60;;
19780;SDS011;10050;55.492;13.506;2023-03-08T15:32:48;1.63;;;0.80;;
19780;SDS011;10050;55.492;13.506;2023-03-08T15:35:14;0.73;;;0.73;;
19780;SDS011;10050;55.492;13.506;2023-03-08T15:37:41;0.83;;;0.80;;
19780;SDS011;10050;55.492;13.506;2023-03-08T15:40:12;0.73;;;0.73;;
19780;SDS011;10050;55.492;13.506;2023-03-08T15:42:40;2.97;;;1.00;;
19780;SDS011;10050;55.492;13.506;2023-03-08T15:45:06;1.03;;;0.83;;
19780;SDS011;10050;55.492;13.506;2023-03-08T15:47:32;0.83;;;0.80;;
19780;SDS011;10050;55.492;13.506;2023-03-08T15:49:58;1.00;;;0.90;;
19780;SDS011;10050;55.492;13.506;2023-03-08T15:52:26;0.80;;;0.80;;
19780;SDS011;10050;55.492;13.506;2023-03-08T15:54:52;1.87;;;0.90;;
19780;SDS011;10050;55.492;13.506;2023-03-08T15:57:28;0.80;;;0.80;;
19780;SDS011;10050;55.492;13.506;2023-03-08T15:59:54;0.80;;;0.80;;
19780;SDS011;10050;55.492;13.506;2023-03-08T16:02:20;1.33;;;0.90;;
19780;SDS011;10050;55.492;13.506;2023-03-08T16:04:46;1.47;;;1.00;;
19780;SDS011;10050;55.492;13.506;2023-03-08T16:07:16;0.90;;;0.90;;
19780;SDS011;10050;55.492;13.506;2023-03-08T16:09:43;0.80;;;0.80;;
19780;SDS011;10050;55.492;13.506;2023-03-08T16:12:10;1.27;;;0.90;;
19780;SDS011;10050;55.492;13.506;2023-03-08T16:14:37;0.90;;;0.90;;
19780;SDS011;10050;55.492;13.506;2023-03-08T16:17:03;1.77;;;0.93;;
19780;SDS011;10050;55.492;13.506;2023-03-08T16:19:33;1.57;;;0.90;;
19780;SDS011;10050;55.492;13.506;2023-03-08T16:22:00;0.80;;;0.80;;
19780;SDS011;10050;55.492;13.506;2023-03-08T16:24:27;0.87;;;0.87;;
19780;SDS011;10050;55.492;13.506;2023-03-08T16:26:53;2.57;;;1.10;;
19780;SDS011;10050;55.492;13.506;2023-03-08T16:29:23;0.67;;;0.67;;